Badlands Natl Park, South Dakota
Current Conditions -  °F | °C
As of 1:55 AM on Saturday 22 Nov 2014 (Local Time) from KPHP Reporting Station
Clear Clear  
Wind Chill: 34°   Ceiling: Unl
Heat Index: 34°   Visibility: 10mi
Dew Point: 21°   Wind: 0mph
Humidity: 59%   Direction: NA
Pressure: 29.74"   Gusts: NA
Location:  43.78°N, 102.25°W
Report Text: KPHP 220855Z AUTO 00000KT 10SM CLR 01/M06 A2974 RMK AO2 SLP078 T00111061 56020 FZRANO $
Loading
Personal Weather Stations






























Interactive Weather Map New forecast layout! Learn more

10-Day Weather Forecast

Advertisements
Track Severe Weather on mobile